Time;durP1;ratioP1;P1;durP2;ratioP2;P2;SDS_P1;SDS_P2;PMS_P1;PMS_P2;Temp;Humidity;BMP_temperature;BMP_pressure;BME280_temperature;BME280_humidity;BME280_pressure;Samples;Min_cycle;Max_cycle;Signal;HPM_P1;HPM_P2
2023/05/20 00:00:19;;;;;;;19.90;4.70;;;;;;;12.34;87.61;102531.34;5068743;28;20166;-70
2023/05/20 00:02:44;;;;;;;13.33;4.57;;;;;;;12.31;87.90;102531.66;5053155;28;20115;-71
2023/05/20 00:05:10;;;;;;;17.07;4.73;;;;;;;12.23;88.02;102535.25;5053639;28;20031;-70
2023/05/20 00:07:35;;;;;;;14.53;4.30;;;;;;;12.16;88.33;102533.38;5065563;28;20064;-70
2023/05/20 00:10:01;;;;;;;19.13;4.83;;;;;;;12.13;88.64;102534.56;5067543;28;20055;-70
2023/05/20 00:12:26;;;;;;;13.80;4.97;;;;;;;12.11;88.47;102535.75;5063250;28;20389;-70
2023/05/20 00:14:52;;;;;;;14.63;4.90;;;;;;;12.06;88.71;102532.63;5063669;28;20062;-70
2023/05/20 00:17:18;;;;;;;14.57;5.00;;;;;;;12.08;88.19;102542.44;5063088;28;20050;-69
2023/05/20 00:19:43;;;;;;;14.35;5.22;;;;;;;11.99;88.33;102531.56;5062437;28;20368;-69
2023/05/20 00:22:09;;;;;;;12.27;4.90;;;;;;;11.99;88.33;102531.56;5062648;28;20033;-69
2023/05/20 00:24:34;;;;;;;13.87;5.20;;;;;;;12.01;88.43;102535.84;5051954;28;20508;-69
2023/05/20 00:27:01;;;;;;;9.95;4.55;;;;;;;11.97;88.36;102539.13;5052016;28;20106;-70
2023/05/20 00:29:27;;;;;;;14.43;4.72;;;;;;;11.86;88.60;102540.25;5051024;28;20036;-69
2023/05/20 00:31:53;;;;;;;16.00;5.53;;;;;;;11.82;88.58;102538.00;5060962;28;20032;-69
2023/05/20 00:34:19;;;;;;;12.88;5.32;;;;;;;11.81;88.35;102531.69;5066752;28;20277;-69
2023/05/20 00:36:44;;;;;;;18.98;5.22;;;;;;;11.77;89.01;102538.50;5065509;28;20722;-70
2023/05/20 00:39:10;;;;;;;13.17;5.30;;;;;;;11.76;88.76;102534.06;5062970;28;20032;-68
2023/05/20 00:41:37;;;;;;;12.75;4.85;;;;;;;11.74;88.75;102532.50;5063874;28;20492;-69
2023/05/20 00:44:02;;;;;;;14.83;4.70;;;;;;;11.72;88.28;102534.53;5044229;28;20037;-70
2023/05/20 00:46:28;;;;;;;12.85;4.85;;;;;;;11.67;88.45;102521.28;5048807;28;20280;-69
2023/05/20 00:48:54;;;;;;;13.67;5.10;;;;;;;11.67;88.53;102518.56;5065555;28;20472;-68
2023/05/20 00:51:20;;;;;;;15.23;4.83;;;;;;;11.65;89.16;102520.59;5063019;28;20032;-69
2023/05/20 00:53:46;;;;;;;13.65;5.60;;;;;;;11.62;88.56;102520.06;5066492;28;20032;-69
2023/05/20 00:56:12;;;;;;;13.57;4.73;;;;;;;11.58;88.51;102526.88;5064187;28;20138;-69
2023/05/20 00:58:37;;;;;;;17.52;5.65;;;;;;;11.60;88.73;102513.88;5064407;28;20024;-69
2023/05/20 01:01:04;;;;;;;14.90;4.87;;;;;;;11.59;88.87;102515.75;5065445;28;20107;-70
2023/05/20 01:03:29;;;;;;;13.98;5.55;;;;;;;11.57;89.30;102515.03;5058511;28;20375;-69
2023/05/20 01:05:55;;;;;;;10.13;4.73;;;;;;;11.58;88.59;102513.16;5065109;28;20033;-70
2023/05/20 01:08:22;;;;;;;18.60;5.97;;;;;;;11.59;88.78;102517.66;5064302;28;20029;-69
2023/05/20 01:10:50;;;;;;;;;;;;;;;11.61;88.53;102510.09;5063564;28;20111;-70
2023/05/20 01:13:18;;;;;;;;;;;;;;;11.68;88.51;102505.69;5044235;28;19924;-70
2023/05/20 01:15:46;;;;;;;14.20;5.03;;;;;;;11.61;88.88;102496.38;5049354;28;20362;-69
2023/05/20 01:18:17;;;;;;;17.52;5.40;;;;;;;11.59;88.52;102499.28;5062840;28;20070;-69
2023/05/20 01:20:46;;;;;;;11.05;4.80;;;;;;;11.66;88.55;102504.97;5064820;28;20063;-69
2023/05/20 01:23:11;;;;;;;16.40;5.55;;;;;;;11.69;88.21;102508.25;5062229;28;20024;-69
2023/05/20 01:25:36;;;;;;;19.37;4.93;;;;;;;11.66;88.48;102499.50;5045537;28;20055;-69
2023/05/20 01:28:02;;;;;;;11.93;4.60;;;;;;;11.66;88.23;102489.38;5063207;28;20032;-69
2023/05/20 01:30:34;;;;;;;10.20;4.83;;;;;;;11.71;88.17;102491.63;5043980;28;20106;-69
2023/05/20 01:33:07;;;;;;;12.93;4.90;;;;;;;11.71;88.07;102500.72;5063844;28;20139;-69
2023/05/20 01:35:34;;;;;;;12.85;4.68;;;;;;;11.75;87.73;102493.88;5062911;28;20396;-70
2023/05/20 01:38:02;;;;;;;12.15;4.63;;;;;;;11.72;87.76;102490.59;5044190;28;20112;-69
2023/05/20 01:40:28;;;;;;;15.90;5.13;;;;;;;11.70;88.42;102482.50;5062553;28;20036;-69
2023/05/20 01:42:55;;;;;;;14.90;4.90;;;;;;;11.67;88.22;102480.13;5060589;28;20064;-69
2023/05/20 01:45:22;;;;;;;;;;;;;;;11.70;88.14;102476.19;5068570;28;20065;-70
2023/05/20 01:47:48;;;;;;;9.97;4.47;;;;;;;11.64;88.62;102476.84;5067731;28;19931;-69
2023/05/20 01:50:14;;;;;;;13.45;4.95;;;;;;;11.61;88.65;102478.03;5068487;28;20028;-69
2023/05/20 01:52:40;;;;;;;14.30;5.40;;;;;;;11.57;88.83;102481.22;5068091;28;20487;-69
2023/05/20 01:55:05;;;;;;;15.17;5.27;;;;;;;11.52;88.92;102478.97;5064813;28;20472;-68
2023/05/20 01:57:31;;;;;;;14.23;5.20;;;;;;;11.48;89.44;102480.31;5065428;28;20024;-70
2023/05/20 01:59:56;;;;;;;15.73;5.25;;;;;;;11.41;89.91;102486.63;5064470;28;20036;-69
2023/05/20 02:02:22;;;;;;;11.73;5.13;;;;;;;11.43;90.20;102484.59;5066292;28;20028;-70
2023/05/20 02:04:49;;;;;;;14.33;5.30;;;;;;;11.32;90.96;102482.13;5067332;28;20476;-69
2023/05/20 02:07:17;;;;;;;13.38;5.00;;;;;;;11.28;91.24;102477.97;5066977;28;20052;-69
2023/05/20 02:09:43;;;;;;;12.10;5.35;;;;;;;11.24;91.62;102480.19;5066366;28;20020;-69
2023/05/20 02:12:15;;;;;;;15.53;5.73;;;;;;;11.24;91.32;102482.06;5052510;28;20032;-69
2023/05/20 02:14:44;;;;;;;12.40;5.30;;;;;;;11.12;91.75;102472.38;5062115;28;20537;-69
2023/05/20 02:17:09;;;;;;;14.70;5.78;;;;;;;11.09;92.23;102480.91;5067984;28;20460;-69
2023/05/20 02:19:35;;;;;;;12.93;5.10;;;;;;;11.12;92.41;102476.00;5048085;28;20021;-69
2023/05/20 02:22:00;;;;;;;10.88;5.40;;;;;;;11.07;92.63;102483.84;5069802;28;20055;-69
2023/05/20 02:24:25;;;;;;;13.63;5.47;;;;;;;11.02;92.95;102485.34;5045686;28;20064;-69
2023/05/20 02:26:53;;;;;;;19.05;6.18;;;;;;;10.98;92.86;102479.31;5067714;28;20048;-69
2023/05/20 02:29:20;;;;;;;11.57;5.45;;;;;;;10.96;93.06;102475.88;5066277;28;20488;-69
2023/05/20 02:31:46;;;;;;;14.77;5.65;;;;;;;10.91;93.23;102478.25;5048042;28;20518;-69
2023/05/20 02:34:12;;;;;;;10.10;5.40;;;;;;;10.90;94.37;102471.00;5067424;28;20344;-69
2023/05/20 02:36:37;;;;;;;13.43;6.23;;;;;;;10.86;94.34;102468.75;5068700;28;20025;-69
2023/05/20 02:39:03;;;;;;;13.73;6.10;;;;;;;10.88;94.34;102469.50;5067833;28;20119;-70
2023/05/20 02:41:28;;;;;;;14.33;6.20;;;;;;;10.83;94.25;102469.94;5064139;28;20543;-69
2023/05/20 02:43:54;;;;;;;14.37;5.37;;;;;;;10.79;94.72;102473.16;5049003;28;20404;-69
2023/05/20 02:46:19;;;;;;;11.63;5.57;;;;;;;10.72;95.45;102464.72;5052505;28;20372;-69
2023/05/20 02:48:45;;;;;;;20.03;6.00;;;;;;;10.71;95.27;102473.97;5066977;28;20036;-69
2023/05/20 02:51:10;;;;;;;14.47;6.23;;;;;;;10.74;95.30;102470.03;5068199;28;20063;-69
2023/05/20 02:53:36;;;;;;;12.43;6.22;;;;;;;10.68;96.12;102470.69;5051604;28;20362;-69
2023/05/20 02:56:03;;;;;;;19.50;5.82;;;;;;;10.67;96.79;102468.97;5067418;28;20075;-69
2023/05/20 02:58:29;;;;;;;16.30;5.88;;;;;;;10.66;96.25;102480.91;5066352;28;20029;-69
2023/05/20 03:00:56;;;;;;;14.63;5.97;;;;;;;10.61;96.44;102467.72;5069805;28;20088;-69
2023/05/20 03:03:23;;;;;;;13.40;5.97;;;;;;;10.64;96.63;102475.63;5053651;28;20060;-70
2023/05/20 03:05:49;;;;;;;12.50;5.68;;;;;;;10.62;96.38;102466.69;5068319;28;20016;-70
2023/05/20 03:08:14;;;;;;;18.03;6.90;;;;;;;10.62;96.82;102461.19;5064157;28;20025;-69
2023/05/20 03:10:40;;;;;;;13.40;5.53;;;;;;;10.62;96.82;102458.47;5064547;28;20408;-70
2023/05/20 03:13:08;;;;;;;13.60;5.85;;;;;;;10.58;97.27;102454.31;5053759;28;20537;-70
2023/05/20 03:15:36;;;;;;;16.27;6.45;;;;;;;10.64;97.41;102463.78;5065992;28;20027;-69
2023/05/20 03:18:01;;;;;;;15.00;5.72;;;;;;;10.59;97.78;102463.41;5067420;28;20043;-69
2023/05/20 03:20:31;;;;;;;13.07;5.80;;;;;;;10.58;97.89;102462.53;5052720;28;20029;-69
2023/05/20 03:22:57;;;;;;;12.77;7.20;;;;;;;10.63;97.33;102470.28;5046343;28;20036;-69
2023/05/20 03:25:23;;;;;;;14.47;5.77;;;;;;;10.54;98.10;102466.63;5067449;28;20099;-69
2023/05/20 03:27:49;;;;;;;15.23;6.00;;;;;;;10.47;97.84;102471.00;5065399;28;20077;-70
2023/05/20 03:30:14;;;;;;;12.77;5.83;;;;;;;10.46;98.00;102469.28;5065690;28;20103;-69
2023/05/20 03:32:41;;;;;;;17.60;6.35;;;;;;;10.45;98.80;102472.16;5066605;28;20030;-69
2023/05/20 03:35:08;;;;;;;14.45;6.78;;;;;;;10.52;98.21;102470.53;5053104;28;20116;-69
2023/05/20 03:37:34;;;;;;;16.38;6.45;;;;;;;10.46;98.72;102474.75;5065714;28;20028;-69
2023/05/20 03:39:59;;;;;;;10.03;6.30;;;;;;;10.42;99.14;102469.75;5064275;28;20029;-69
2023/05/20 03:42:25;;;;;;;12.70;6.20;;;;;;;10.39;99.15;102470.06;5066297;28;20054;-69
2023/05/20 03:44:50;;;;;;;14.75;5.72;;;;;;;10.38;98.84;102468.34;5053207;28;20032;-69
2023/05/20 03:47:16;;;;;;;10.90;5.47;;;;;;;10.37;98.90;102472.09;5064595;28;20041;-70
2023/05/20 03:49:41;;;;;;;16.65;6.22;;;;;;;10.34;99.50;102464.19;5065987;28;20040;-69
2023/05/20 03:52:06;;;;;;;17.53;7.30;;;;;;;10.33;99.75;102466.09;5068056;28;20047;-69
2023/05/20 03:54:34;;;;;;;14.23;6.73;;;;;;;10.39;99.33;102461.84;5063473;28;20032;-69
2023/05/20 03:56:59;;;;;;;20.13;7.15;;;;;;;10.37;99.32;102453.81;5064887;28;20087;-69
2023/05/20 03:59:26;;;;;;;11.20;6.57;;;;;;;10.39;99.41;102465.44;5049360;28;20029;-68
2023/05/20 04:01:51;;;;;;;15.55;6.03;;;;;;;10.39;99.47;102459.97;5070165;28;20020;-69
2023/05/20 04:04:17;;;;;;;14.77;6.33;;;;;;;10.42;99.67;102456.06;5066124;28;20518;-69
2023/05/20 04:06:42;;;;;;;13.07;6.53;;;;;;;10.44;99.85;102459.50;5064858;28;20097;-69
2023/05/20 04:09:08;;;;;;;14.40;6.32;;;;;;;10.48;98.91;102456.31;5054295;28;20062;-69
2023/05/20 04:11:33;;;;;;;13.02;6.20;;;;;;;10.49;99.82;102459.88;5063189;28;20108;-69
2023/05/20 04:13:59;;;;;;;16.83;6.38;;;;;;;10.52;99.08;102465.06;5063786;28;20024;-69
2023/05/20 04:16:24;;;;;;;12.27;6.77;;;;;;;10.53;99.51;102461.28;5064904;28;20027;-69
2023/05/20 04:18:51;;;;;;;13.50;5.68;;;;;;;10.56;98.83;102467.31;5062780;28;20028;-69
2023/05/20 04:21:18;;;;;;;18.45;6.53;;;;;;;10.59;98.91;102453.31;5044588;28;20071;-69
2023/05/20 04:23:43;;;;;;;13.10;6.65;;;;;;;10.67;98.96;102468.97;5065124;28;20050;-69
2023/05/20 04:26:09;;;;;;;11.20;6.20;;;;;;;10.69;98.22;102462.31;5061850;28;20031;-70
2023/05/20 04:28:36;;;;;;;15.73;6.43;;;;;;;10.78;98.30;102464.06;5068545;28;20039;-70
2023/05/20 04:31:05;;;;;;;14.48;6.25;;;;;;;10.82;98.26;102470.09;5048899;28;20502;-69
2023/05/20 04:33:31;;;;;;;12.05;6.05;;;;;;;10.85;98.24;102472.53;5063503;28;20024;-69
2023/05/20 04:35:58;;;;;;;10.13;5.60;;;;;;;10.91;97.29;102467.28;5062175;28;20032;-69
2023/05/20 04:38:28;;;;;;;13.38;6.18;;;;;;;10.94;97.39;102477.06;5047744;28;20060;-69
2023/05/20 04:40:57;;;;;;;16.52;6.93;;;;;;;10.97;97.34;102469.38;5063205;28;20407;-69
2023/05/20 04:43:25;;;;;;;9.98;6.35;;;;;;;11.06;97.12;102476.63;5048706;28;20052;-69
2023/05/20 04:45:54;;;;;;;13.23;6.70;;;;;;;11.07;96.56;102472.00;5068891;28;20136;-69
2023/05/20 04:48:21;;;;;;;14.10;7.70;;;;;;;11.13;96.93;102471.38;5067507;28;20117;-69
2023/05/20 04:50:47;;;;;;;10.48;6.53;;;;;;;11.12;96.79;102473.25;5065247;28;20032;-69
2023/05/20 04:53:13;;;;;;;11.60;5.90;;;;;;;11.20;96.81;102481.53;5047744;28;20401;-69
2023/05/20 04:55:38;;;;;;;15.53;6.03;;;;;;;11.29;96.30;102476.94;5063958;28;20033;-70
2023/05/20 04:58:04;;;;;;;11.65;5.90;;;;;;;11.27;95.93;102473.53;5066957;28;20039;-69
2023/05/20 05:00:30;;;;;;;13.87;6.23;;;;;;;11.30;96.18;102473.19;5049596;28;20388;-70
2023/05/20 05:02:55;;;;;;;10.57;6.05;;;;;;;11.40;96.03;102476.66;5067367;28;20388;-69
2023/05/20 05:05:20;;;;;;;11.73;6.13;;;;;;;11.51;95.67;102476.38;5046823;28;20066;-69
2023/05/20 05:07:46;;;;;;;15.97;6.60;;;;;;;11.58;94.99;102472.81;5065356;28;20867;-69
2023/05/20 05:10:11;;;;;;;17.97;6.50;;;;;;;11.72;94.58;102463.16;5046682;28;20052;-69
2023/05/20 05:12:37;;;;;;;8.93;5.67;;;;;;;11.75;94.35;102468.31;5060984;28;20052;-69
2023/05/20 05:15:02;;;;;;;15.20;6.93;;;;;;;11.72;94.14;102464.00;5064814;28;20024;-69
2023/05/20 05:17:28;;;;;;;11.18;5.15;;;;;;;11.71;94.11;102456.81;5065144;28;20384;-69
2023/05/20 05:19:53;;;;;;;11.93;4.83;;;;;;;12.43;92.02;102464.41;5050358;28;20021;-69
2023/05/20 05:22:18;;;;;;;16.17;6.00;;;;;;;13.23;88.52;102461.66;5066431;28;20024;-69
2023/05/20 05:24:44;;;;;;;14.10;5.77;;;;;;;13.84;84.24;102459.03;5065620;28;20024;-69
2023/05/20 05:27:09;;;;;;;13.07;5.17;;;;;;;14.64;81.04;102453.03;5048802;28;20074;-69
2023/05/20 05:29:35;;;;;;;9.93;4.17;;;;;;;14.84;78.77;102448.75;5061721;28;20029;-69
2023/05/20 05:32:00;;;;;;;16.83;6.43;;;;;;;15.29;76.58;102449.50;5049570;28;20025;-69
2023/05/20 05:34:26;;;;;;;11.17;4.83;;;;;;;14.95;76.55;102451.03;5064156;28;20301;-69
2023/05/20 05:36:51;;;;;;;12.53;4.40;;;;;;;14.85;77.03;102440.28;5064995;28;20077;-69
2023/05/20 05:39:16;;;;;;;8.40;4.37;;;;;;;15.26;75.72;102437.97;5050502;28;20486;-70
2023/05/20 05:41:42;;;;;;;11.17;3.93;;;;;;;15.81;72.37;102444.75;5061848;28;20035;-69
2023/05/20 05:44:07;;;;;;;10.50;5.00;;;;;;;15.87;71.50;102441.22;5063994;28;20329;-70
2023/05/20 05:46:32;;;;;;;11.10;4.83;;;;;;;16.39;71.39;102447.41;5063498;28;20108;-69
2023/05/20 05:48:58;;;;;;;9.70;4.70;;;;;;;16.83;68.68;102447.22;5063477;28;20028;-70
2023/05/20 05:51:26;;;;;;;11.33;5.07;;;;;;;17.28;68.46;102435.69;5048366;28;20068;-70
2023/05/20 05:53:52;;;;;;;11.20;4.78;;;;;;;17.38;65.91;102447.22;5066225;28;20023;-70
2023/05/20 05:56:17;;;;;;;10.43;4.20;;;;;;;17.85;65.57;102441.78;5049412;28;20028;-69
2023/05/20 05:58:43;;;;;;;9.30;3.97;;;;;;;17.64;64.93;102433.56;5062718;28;20054;-70
2023/05/20 06:01:08;;;;;;;9.43;4.30;;;;;;;17.75;64.04;102433.84;5063219;28;20041;-70
2023/05/20 06:03:33;;;;;;;8.80;4.10;;;;;;;18.49;62.67;102432.00;5046689;28;20397;-70
2023/05/20 06:05:59;;;;;;;12.63;4.20;;;;;;;19.02;59.85;102433.78;5049100;28;20040;-70
2023/05/20 06:08:25;;;;;;;11.57;3.80;;;;;;;19.24;60.31;102443.63;5065150;28;20033;-70
2023/05/20 06:10:51;;;;;;;6.95;4.05;;;;;;;19.26;59.42;102441.50;5043596;28;20143;-70
2023/05/20 06:13:16;;;;;;;8.63;3.83;;;;;;;19.44;59.49;102447.25;5049188;28;20115;-70
2023/05/20 06:15:42;;;;;;;10.50;4.33;;;;;;;19.29;57.64;102446.63;5062104;28;20473;-70
2023/05/20 06:18:07;;;;;;;9.13;3.57;;;;;;;19.63;57.13;102455.53;5063498;28;20555;-71
2023/05/20 06:20:32;;;;;;;15.90;4.43;;;;;;;19.88;56.99;102445.41;5047566;28;20031;-70
2023/05/20 06:22:58;;;;;;;10.17;4.07;;;;;;;20.07;57.40;102449.25;5046312;28;20118;-70
2023/05/20 06:25:24;;;;;;;8.37;3.83;;;;;;;20.28;53.99;102444.19;5049060;28;20023;-70
2023/05/20 06:27:50;;;;;;;8.63;4.40;;;;;;;20.18;55.01;102446.59;5063469;28;20123;-70
2023/05/20 06:30:15;;;;;;;11.10;4.28;;;;;;;20.32;55.80;102434.34;5060464;28;20032;-70
2023/05/20 06:32:41;;;;;;;12.93;4.20;;;;;;;20.27;55.08;102436.94;5046608;28;20480;-69
2023/05/20 06:35:07;;;;;;;12.30;3.57;;;;;;;20.27;55.38;102430.53;5063004;28;20036;-72
2023/05/20 06:37:32;;;;;;;12.27;4.13;;;;;;;20.34;54.69;102443.31;5068114;28;20162;-72
2023/05/20 06:39:58;;;;;;;8.80;3.80;;;;;;;20.62;55.15;102448.50;5067292;28;20527;-72
2023/05/20 06:42:23;;;;;;;9.37;3.80;;;;;;;20.31;56.10;102431.75;5067858;28;20053;-72
2023/05/20 06:44:48;;;;;;;7.10;3.60;;;;;;;20.53;54.92;102435.91;5048140;28;20082;-72
2023/05/20 06:47:16;;;;;;;7.67;3.40;;;;;;;21.11;52.24;102426.28;5050606;28;20380;-72
2023/05/20 06:49:45;;;;;;;9.00;3.67;;;;;;;20.63;52.92;102425.13;5065517;28;20446;-72
2023/05/20 06:52:10;;;;;;;10.68;3.58;;;;;;;20.79;54.17;102432.94;5068345;28;20028;-72
2023/05/20 06:54:40;;;;;;;9.30;4.00;;;;;;;20.74;55.07;102425.28;5067831;28;20778;-72
2023/05/20 06:57:07;;;;;;;8.43;3.50;;;;;;;20.86;54.93;102425.41;5067359;28;20020;-72
2023/05/20 06:59:33;;;;;;;11.75;4.25;;;;;;;20.91;53.15;102426.47;5066853;28;20032;-72
2023/05/20 07:01:59;;;;;;;12.35;3.97;;;;;;;21.08;54.28;102421.19;5051998;28;20017;-72
2023/05/20 07:04:25;;;;;;;12.32;3.72;;;;;;;21.18;53.40;102408.41;5067674;28;20395;-72
2023/05/20 07:06:50;;;;;;;10.40;3.63;;;;;;;20.76;53.48;102414.75;5067372;28;20064;-72
2023/05/20 07:09:15;;;;;;;12.83;4.47;;;;;;;21.29;52.69;102420.78;5066313;28;20032;-71
2023/05/20 07:11:41;;;;;;;8.93;2.87;;;;;;;21.17;52.19;102422.59;5047362;28;20064;-71
2023/05/20 07:14:07;;;;;;;6.47;3.77;;;;;;;21.14;53.32;102423.06;5063541;28;20149;-72
2023/05/20 07:16:33;;;;;;;9.02;3.55;;;;;;;20.75;52.96;102410.25;5065819;28;20052;-72
2023/05/20 07:18:59;;;;;;;9.05;4.07;;;;;;;20.50;52.92;102422.44;5067471;28;20647;-72
2023/05/20 07:21:24;;;;;;;8.13;3.80;;;;;;;20.47;52.92;102425.66;5066435;28;20050;-72
2023/05/20 07:23:50;;;;;;;9.77;3.70;;;;;;;20.71;54.11;102420.13;5049632;28;20032;-72
2023/05/20 07:26:15;;;;;;;15.77;3.70;;;;;;;20.76;53.11;102413.91;5065424;28;20024;-72
2023/05/20 07:28:41;;;;;;;7.10;3.57;;;;;;;20.51;52.78;102418.59;5066125;28;20032;-72
2023/05/20 07:31:06;;;;;;;9.00;3.43;;;;;;;20.93;52.55;102409.53;5066785;28;20078;-71
2023/05/20 07:33:31;;;;;;;7.73;3.60;;;;;;;20.90;52.98;102404.38;5069292;28;20392;-71
2023/05/20 07:35:57;;;;;;;6.67;3.60;;;;;;;21.14;51.50;102409.94;5065751;28;20070;-72
2023/05/20 07:38:22;;;;;;;8.50;3.80;;;;;;;20.96;51.46;102397.94;5067859;28;20380;-71
2023/05/20 07:40:48;;;;;;;8.23;3.73;;;;;;;20.75;51.51;102415.84;5050085;28;20020;-71
2023/05/20 07:43:13;;;;;;;8.33;3.33;;;;;;;20.56;52.18;102396.50;5063450;28;20048;-71
2023/05/20 07:45:39;;;;;;;11.60;3.53;;;;;;;20.77;51.29;102399.78;5045955;28;20565;-71
2023/05/20 07:48:07;;;;;;;10.65;3.30;;;;;;;20.65;51.37;102395.16;5048404;28;20025;-72
2023/05/20 07:50:33;;;;;;;6.47;3.50;;;;;;;20.15;53.05;102398.88;5067387;28;20167;-72
2023/05/20 07:52:58;;;;;;;12.10;4.18;;;;;;;20.75;52.27;102403.84;5066738;28;20074;-72
2023/05/20 07:55:24;;;;;;;4.70;3.50;;;;;;;19.87;52.33;102390.88;5071648;28;20033;-72
2023/05/20 07:57:50;;;;;;;10.90;3.70;;;;;;;19.55;53.71;102394.63;5064268;28;20456;-71
2023/05/20 08:00:15;;;;;;;5.07;3.23;;;;;;;19.92;53.77;102392.97;5065621;28;20434;-72
2023/05/20 08:02:41;;;;;;;7.83;3.37;;;;;;;19.67;54.08;102383.66;5064123;28;20534;-71
2023/05/20 08:05:07;;;;;;;11.13;4.53;;;;;;;19.99;53.45;102391.00;5068138;28;20273;-71
2023/05/20 08:07:33;;;;;;;6.25;3.50;;;;;;;20.03;53.15;102386.72;5065468;28;20033;-72
2023/05/20 08:09:58;;;;;;;11.80;3.63;;;;;;;20.07;53.38;102390.81;5047323;28;20024;-72
2023/05/20 08:12:23;;;;;;;9.17;3.37;;;;;;;20.17;52.85;102386.44;5062873;28;20032;-72
2023/05/20 08:14:49;;;;;;;9.00;3.37;;;;;;;19.87;51.84;102388.09;5064083;28;20025;-72
2023/05/20 08:17:14;;;;;;;11.03;3.13;;;;;;;19.30;53.53;102398.28;5045419;28;20020;-72
2023/05/20 08:19:40;;;;;;;5.30;3.10;;;;;;;19.11;55.05;102388.06;5050336;28;20016;-72
2023/05/20 08:22:06;;;;;;;7.13;3.30;;;;;;;19.46;54.25;102375.59;5051459;28;20025;-73
2023/05/20 08:24:31;;;;;;;9.55;3.33;;;;;;;19.87;54.08;102384.44;5047710;28;20086;-72
2023/05/20 08:26:57;;;;;;;10.10;3.13;;;;;;;19.91;53.09;102380.16;5061174;28;20040;-71
2023/05/20 08:29:22;;;;;;;6.87;3.00;;;;;;;20.03;51.85;102381.16;5066058;28;20028;-72
2023/05/20 08:31:48;;;;;;;5.50;2.50;;;;;;;19.98;51.26;102379.03;5043818;28;20024;-72
2023/05/20 08:34:13;;;;;;;10.37;2.87;;;;;;;19.87;50.46;102385.31;5066953;28;20040;-71
2023/05/20 08:36:38;;;;;;;6.53;2.93;;;;;;;19.69;50.75;102375.97;5065140;28;20024;-72
2023/05/20 08:39:04;;;;;;;6.93;2.63;;;;;;;19.89;50.66;102372.03;5061088;28;20017;-71
2023/05/20 08:41:29;;;;;;;9.03;2.90;;;;;;;20.06;49.98;102373.22;5046484;28;20029;-72
2023/05/20 08:43:58;;;;;;;;;;;;;;;20.01;50.13;102363.84;5062862;28;20057;-70
2023/05/20 08:46:24;;;;;;;6.25;2.58;;;;;;;20.00;49.26;102367.69;5061204;28;19912;-70
2023/05/20 08:48:50;;;;;;;10.30;2.75;;;;;;;20.27;48.15;102358.16;5062381;28;20059;-70
2023/05/20 08:51:19;;;;;;;8.68;2.85;;;;;;;20.21;47.96;102356.25;5061413;28;20413;-68
2023/05/20 08:53:45;;;;;;;8.23;2.42;;;;;;;20.11;47.06;102353.94;5063045;28;20099;-70
2023/05/20 08:56:12;;;;;;;8.68;2.03;;;;;;;20.17;47.45;102352.22;5066566;28;20028;-69
2023/05/20 08:58:37;;;;;;;7.93;2.60;;;;;;;20.13;47.52;102345.38;5047109;28;20036;-70
2023/05/20 09:01:03;;;;;;;9.67;2.60;;;;;;;20.24;47.64;102334.41;5066061;28;20440;-71
2023/05/20 09:03:29;;;;;;;7.38;2.60;;;;;;;20.83;47.40;102333.91;5061672;28;20033;-71
2023/05/20 09:06:06;;;;;;;12.43;2.27;;;;;;;20.23;44.77;102334.63;5047618;28;20024;-69
2023/05/20 09:08:32;;;;;;;11.77;1.98;;;;;;;20.75;45.76;102334.22;5057362;28;20052;-70
2023/05/20 09:10:57;;;;;;;8.32;2.33;;;;;;;20.99;43.94;102325.88;5061550;28;20165;-70
2023/05/20 09:13:23;;;;;;;4.90;2.07;;;;;;;20.97;43.76;102332.75;5057928;28;20442;-68
2023/05/20 09:15:49;;;;;;;12.05;2.53;;;;;;;21.04;43.66;102334.41;5062300;28;20476;-72
2023/05/20 09:18:14;;;;;;;7.03;2.37;;;;;;;21.05;43.87;102318.50;5066031;28;20074;-69
2023/05/20 09:20:40;;;;;;;9.97;2.37;;;;;;;21.06;43.46;102337.78;5062518;28;20484;-71
2023/05/20 09:23:08;;;;;;;9.87;2.30;;;;;;;20.96;42.57;102325.47;5062139;28;20330;-72
2023/05/20 09:25:35;;;;;;;8.20;2.08;;;;;;;20.97;43.75;102329.97;5061591;28;20028;-71
2023/05/20 09:28:05;;;;;;;3.70;2.33;;;;;;;20.87;42.64;102338.78;5057538;28;20059;-72
2023/05/20 09:30:31;;;;;;;9.27;2.28;;;;;;;20.75;42.88;102323.06;5058543;28;20082;-71
2023/05/20 09:32:58;;;;;;;10.48;2.10;;;;;;;20.89;43.15;102317.19;5060953;28;20036;-70
2023/05/20 09:35:25;;;;;;;7.28;2.10;;;;;;;21.17;43.33;102322.22;5060137;28;20028;-70
2023/05/20 09:37:55;;;;;;;7.93;2.08;;;;;;;21.68;42.97;102317.16;5060447;28;20408;-68
2023/05/20 09:40:25;;;;;;;6.45;2.55;;;;;;;21.90;41.85;102307.19;5061396;28;20115;-70
2023/05/20 09:42:58;;;;;;;12.93;2.15;;;;;;;21.57;42.53;102318.78;5059904;28;20075;-69
2023/05/20 09:45:24;;;;;;;7.95;2.15;;;;;;;22.01;41.11;102309.19;5046368;28;20430;-69
2023/05/20 09:47:51;;;;;;;6.57;2.40;;;;;;;21.90;40.82;102310.84;5063514;28;20052;-71
2023/05/20 09:50:20;;;;;;;5.63;1.95;;;;;;;22.03;40.86;102298.66;5048419;28;20093;-71
2023/05/20 09:52:47;;;;;;;6.63;2.53;;;;;;;22.34;39.85;102301.16;5061037;28;20017;-70
2023/05/20 09:55:14;;;;;;;7.80;2.47;;;;;;;21.51;40.03;102302.94;5047621;28;20029;-72
2023/05/20 09:57:39;;;;;;;;;;;;;;;21.84;40.37;102302.56;5063705;28;20020;-72
2023/05/20 10:00:08;;;;;;;3.83;1.77;;;;;;;22.39;39.80;102290.97;5047447;28;19918;-72
2023/05/20 10:02:34;;;;;;;8.40;1.75;;;;;;;22.21;39.05;102281.81;5058380;28;20033;-72
2023/05/20 10:05:10;;;;;;;6.35;1.90;;;;;;;21.87;38.53;102291.78;5063443;28;20379;-75
2023/05/20 10:07:36;;;;;;;7.75;2.15;;;;;;;22.31;39.90;102301.66;5061735;28;20044;-73
2023/05/20 10:10:02;;;;;;;9.02;2.08;;;;;;;22.40;38.31;102303.00;5065946;28;20711;-73
2023/05/20 10:12:49;;;;;;;4.90;2.03;;;;;;;22.58;38.58;102308.53;5045982;28;20516;-72
2023/05/20 10:15:27;;;;;;;5.75;2.10;;;;;;;22.17;38.41;102294.56;5063573;28;20067;-72
2023/05/20 10:17:56;;;;;;;5.72;2.08;;;;;;;21.07;39.61;102292.13;5047265;28;20027;-72
2023/05/20 10:20:21;;;;;;;5.75;2.00;;;;;;;21.27;39.45;102289.97;5065503;28;20033;-73
2023/05/20 10:22:56;;;;;;;9.27;1.83;;;;;;;21.06;39.42;102276.47;5063453;28;20029;-72
2023/05/20 10:25:26;;;;;;;6.35;1.60;;;;;;;21.77;39.31;102277.53;5044486;28;20043;-72
2023/05/20 10:28:02;;;;;;;8.60;2.45;;;;;;;21.78;38.03;102272.81;5067012;28;20464;-72
2023/05/20 10:30:29;;;;;;;2.72;2.10;;;;;;;21.53;39.13;102272.03;5046874;28;20035;-73
2023/05/20 10:32:56;;;;;;;;;;;;;;;21.91;38.31;102264.25;5066863;28;20476;-72
2023/05/20 10:35:27;;;;;;;4.90;1.97;;;;;;;22.03;39.02;102260.41;5063515;28;19956;-71
2023/05/20 10:38:05;;;;;;;9.80;2.20;;;;;;;22.41;37.76;102266.44;5066966;28;20020;-72
2023/05/20 10:40:30;;;;;;;11.75;1.90;;;;;;;22.55;38.50;102269.88;5045178;28;20032;-72
2023/05/20 10:42:59;;;;;;;8.87;1.93;;;;;;;22.25;38.19;102260.72;5070187;28;20559;-72
2023/05/20 10:45:29;;;;;;;8.60;2.45;;;;;;;22.14;38.02;102267.97;5066459;28;20029;-72
2023/05/20 10:47:55;;;;;;;3.05;1.95;;;;;;;22.16;38.09;102268.59;5049966;28;20060;-72
2023/05/20 10:50:35;;;;;;;6.78;2.97;;;;;;;22.10;38.34;102251.94;5064693;28;20037;-72
2023/05/20 10:53:12;;;;;;;7.05;2.15;;;;;;;21.97;39.04;102252.13;5063115;28;20025;-72
2023/05/20 10:55:40;;;;;;;5.53;2.60;;;;;;;22.00;38.40;102246.06;5047399;28;20036;-72
2023/05/20 10:58:06;;;;;;;5.20;2.10;;;;;;;22.67;37.87;102254.00;5065072;28;20027;-72
2023/05/20 11:00:36;;;;;;;7.22;2.40;;;;;;;23.09;37.78;102248.00;5063440;28;20056;-72
2023/05/20 11:03:03;;;;;;;4.82;2.47;;;;;;;22.98;37.37;102240.50;5066919;28;20036;-72
2023/05/20 11:05:29;;;;;;;4.50;2.10;;;;;;;22.91;37.70;102242.56;5063912;28;20032;-72
2023/05/20 11:08:07;;;;;;;3.63;2.05;;;;;;;22.85;37.90;102234.31;5050188;28;20082;-72
2023/05/20 11:10:33;;;;;;;8.90;2.15;;;;;;;22.62;37.36;102235.16;5066809;28;20384;-72
2023/05/20 11:13:00;;;;;;;6.45;2.35;;;;;;;22.61;37.61;102240.97;5059771;28;20397;-71
2023/05/20 11:15:26;;;;;;;7.53;1.90;;;;;;;23.16;38.11;102239.50;5066742;28;20054;-72
2023/05/20 11:17:55;;;;;;;6.57;2.57;;;;;;;23.75;37.71;102250.28;5064752;28;20111;-72